Time;durP1;ratioP1;P1;durP2;ratioP2;P2;SDS_P1;SDS_P2;PMS_P1;PMS_P2;Temp;Humidity;BMP_temperature;BMP_pressure;BME280_temperature;BME280_humidity;BME280_pressure;Samples;Min_cycle;Max_cycle;Signal;HPM_P1;HPM_P2
2022/08/31 00:06:21;;;;;;;;;11.00;10.00;;;;;19.78;74.82;99658.94;6318057;20;2786813;-49
2022/08/31 00:08:50;;;;;;;;;11.00;10.33;;;;;19.73;74.07;99657.53;6310310;20;2790962;-49
2022/08/31 00:11:26;;;;;;;;;9.00;9.00;;;;;19.66;74.21;99647.34;6319291;20;2750282;-51
2022/08/31 00:14:05;;;;;;;;;14.67;11.33;;;;;19.53;74.43;99648.56;6308632;20;3511068;-51
2022/08/31 00:16:41;;;;;;;;;12.00;10.00;;;;;19.68;74.80;99642.66;6314849;20;2788024;-52
2022/08/31 00:19:10;;;;;;;;;11.00;10.00;;;;;19.78;73.50;99642.59;6316678;20;2787759;-48
2022/08/31 00:21:39;;;;;;;;;11.00;10.00;;;;;19.84;73.77;99648.25;6312144;20;3517599;-52
2022/08/31 00:24:10;;;;;;;;;11.33;10.00;;;;;19.66;74.14;99639.19;6305662;20;2791927;-50
2022/08/31 00:26:40;;;;;;;;;11.33;10.00;;;;;19.40;75.11;99644.50;6311866;20;3520227;-49
2022/08/31 00:29:10;;;;;;;;;11.00;10.00;;;;;19.57;75.44;99651.00;6309190;20;2786795;-52
2022/08/31 00:31:39;;;;;;;;;11.00;11.00;;;;;19.40;75.22;99653.53;6320511;20;2787804;-48
2022/08/31 00:34:07;;;;;;;;;11.00;11.00;;;;;19.34;76.18;99651.41;6309786;20;2802394;-49
2022/08/31 00:36:36;;;;;;;;;10.33;10.33;;;;;19.13;76.70;99653.53;6317264;20;2778554;-49
2022/08/31 00:39:06;;;;;;;;;10.00;9.33;;;;;19.14;77.14;99656.13;6316647;20;2768057;-47
2022/08/31 00:41:37;;;;;;;;;10.00;10.00;;;;;19.14;77.76;99652.50;6307416;20;3507509;-47
2022/08/31 00:44:10;;;;;;;;;8.33;8.33;;;;;19.23;77.22;99648.91;6310020;20;2746193;-52
2022/08/31 00:46:42;;;;;;;;;14.33;11.67;;;;;18.96;77.29;99652.47;6310678;20;2786138;-49
2022/08/31 00:49:30;;;;;;;;;10.00;10.00;;;;;18.85;78.26;99656.22;6337737;20;2792990;-48
2022/08/31 00:52:06;;;;;;;;;10.00;8.33;;;;;18.67;79.73;99655.22;6284736;20;2766945;-49
2022/08/31 00:54:56;;;;;;;;;11.00;11.00;;;;;18.67;79.53;99658.81;6312202;20;2788801;-49
2022/08/31 00:57:36;;;;;;;;;11.33;11.00;;;;;18.42;80.82;99654.84;6277297;20;3520582;-46
2022/08/31 01:00:14;;;;;;;;;10.33;10.33;;;;;18.40;80.89;99656.84;6311048;20;3510653;-46
2022/08/31 01:02:43;;;;;;;;;9.33;9.33;;;;;18.33;82.22;99655.75;6312174;20;3488779;-47
2022/08/31 01:05:14;;;;;;;;;12.00;10.00;;;;;18.31;82.42;99653.16;6317222;20;2789799;-52
2022/08/31 01:07:46;;;;;;;;;11.50;10.50;;;;;18.38;82.74;99658.88;6276394;20;2790900;-47
2022/08/31 01:10:20;;;;;;;;;11.00;10.67;;;;;18.88;80.45;99658.66;6284931;20;2803688;-52
2022/08/31 01:12:52;;;;;;;;;12.67;10.33;;;;;18.76;81.27;99670.72;6311288;20;3517974;-49
2022/08/31 01:15:21;;;;;;;;;12.00;12.00;;;;;18.53;82.71;99668.28;6278779;20;2789832;-48
2022/08/31 01:17:53;;;;;;;;;10.67;10.00;;;;;18.37;82.12;99662.59;6277176;20;2778707;-48
2022/08/31 01:20:59;;;;;;;;;11.50;11.50;;;;;18.53;82.03;99665.56;6312399;20;2788008;-49
2022/08/31 01:23:47;;;;;;;;;13.00;11.00;;;;;18.45;81.90;99665.44;6282794;20;2790024;-47
2022/08/31 01:26:21;;;;;;;;;9.67;9.67;;;;;18.49;80.86;99666.88;6275470;20;3498191;-50
2022/08/31 01:28:56;;;;;;;;;10.00;10.00;;;;;18.54;81.63;99669.16;6316203;20;2794060;-50
2022/08/31 01:31:43;;;;;;;;;12.00;12.00;;;;;18.01;84.34;99662.34;6275226;20;3527418;-46
2022/08/31 01:34:13;;;;;;;;;12.00;12.00;;;;;17.94;85.49;99661.19;6311463;20;2800367;-54
2022/08/31 01:36:44;;;;;;;;;12.00;12.00;;;;;17.71;85.76;99666.84;6308988;20;3525231;-50
2022/08/31 01:39:13;;;;;;;;;14.50;12.00;;;;;17.76;86.14;99659.13;6310175;20;2799294;-54
2022/08/31 01:41:42;;;;;;;;;12.00;12.00;;;;;17.59;87.04;99651.69;6280843;20;2799310;-49
2022/08/31 01:44:20;;;;;;;;;13.33;12.00;;;;;17.25;88.90;99653.88;6306599;20;3513880;-56
2022/08/31 01:46:49;;;;;;;;;13.50;12.50;;;;;17.15;90.67;99659.28;6312541;20;2795180;-58
2022/08/31 01:49:20;;;;;;;;;16.00;13.50;;;;;17.22;91.20;99659.56;6280123;20;2492004;-59
2022/08/31 01:51:52;;;;;;;;;13.33;11.33;;;;;17.13;92.11;99653.13;6281293;20;3527478;-56
2022/08/31 01:54:23;;;;;;;;;10.33;10.33;;;;;17.12;91.48;99654.13;6264203;20;3510731;-48
2022/08/31 01:56:52;;;;;;;;;13.00;12.00;;;;;17.14;91.52;99654.84;6303156;20;2805480;-49
2022/08/31 01:59:22;;;;;;;;;13.00;13.00;;;;;16.91;92.46;99661.47;6283019;20;2796098;-50
2022/08/31 02:01:54;;;;;;;;;15.33;12.67;;;;;16.84;92.36;99661.13;6276550;20;3536836;-50
2022/08/31 02:04:27;;;;;;;;;15.67;15.67;;;;;16.86;92.75;99654.56;6276230;20;3545122;-51
2022/08/31 02:07:00;;;;;;;;;12.00;12.00;;;;;17.16;91.94;99660.97;6273560;20;3535635;-52
2022/08/31 02:09:29;;;;;;;;;14.33;13.33;;;;;17.09;91.46;99663.41;6313780;20;2796581;-48
2022/08/31 02:11:58;;;;;;;;;13.67;12.00;;;;;17.26;90.35;99661.88;6309984;20;3513935;-49
2022/08/31 02:14:27;;;;;;;;;14.67;14.67;;;;;17.03;91.71;99654.94;6308584;20;2812825;-49
2022/08/31 02:16:55;;;;;;;;;13.00;13.00;;;;;17.00;91.43;99656.06;6307880;20;3545004;-51
2022/08/31 02:19:24;;;;;;;;;13.67;11.67;;;;;16.60;93.62;99642.44;6276239;20;3516670;-53
2022/08/31 02:21:52;;;;;;;;;15.50;14.00;;;;;16.41;94.88;99637.75;6312246;20;2620533;-49
2022/08/31 02:24:20;;;;;;;;;13.00;13.00;;;;;16.32;95.92;99642.09;6278465;20;3506573;-49
2022/08/31 02:26:49;;;;;;;;;16.00;15.00;;;;;16.40;95.73;99633.31;6305019;20;3545217;-46
2022/08/31 02:29:22;;;;;;;;;11.67;11.67;;;;;16.76;93.16;99637.38;6280750;20;3530448;-50
2022/08/31 02:31:50;;;;;;;;;12.00;12.00;;;;;16.58;93.74;99623.56;6309889;20;2791985;-58
2022/08/31 02:34:19;;;;;;;;;11.00;11.00;;;;;16.27;95.21;99625.38;6274390;20;3515901;-56
2022/08/31 02:36:48;;;;;;;;;12.67;12.67;;;;;16.40;94.94;99626.06;6309835;20;3537917;-58
2022/08/31 02:39:16;;;;;;;;;13.67;12.33;;;;;16.32;95.68;99631.25;6312325;20;2795152;-59
2022/08/31 02:41:46;;;;;;;;;13.67;13.67;;;;;16.42;95.26;99625.91;6305908;20;3527308;-57
2022/08/31 02:44:14;;;;;;;;;17.33;14.67;;;;;16.54;94.48;99626.72;6306647;20;3550268;-58
2022/08/31 02:46:43;;;;;;;;;15.33;14.33;;;;;16.84;93.47;99629.44;6276634;20;2810736;-58
2022/08/31 02:49:12;;;;;;;;;12.33;10.67;;;;;16.90;92.89;99633.47;6310358;20;3515910;-58
2022/08/31 02:51:42;;;;;;;;;12.67;11.67;;;;;17.30;90.27;99641.63;6302921;20;3518992;-58
2022/08/31 02:54:11;;;;;;;;;15.33;13.33;;;;;17.24;90.26;99639.44;6308138;20;3534707;-58
2022/08/31 02:56:40;;;;;;;;;16.00;13.50;;;;;16.82;92.78;99641.41;6305671;20;2808029;-58
2022/08/31 02:59:10;;;;;;;;;15.67;15.33;;;;;16.49;93.99;99637.94;6276762;20;3546328;-58
2022/08/31 03:01:38;;;;;;;;;13.33;12.33;;;;;16.42;94.63;99632.19;6276717;20;3537807;-58
2022/08/31 03:04:06;;;;;;;;;11.00;11.00;;;;;16.45;94.84;99631.91;6278093;20;2800400;-58
2022/08/31 03:06:34;;;;;;;;;11.00;11.00;;;;;16.75;93.43;99632.94;6279778;20;2800280;-58
2022/08/31 03:09:04;;;;;;;;;12.33;12.33;;;;;16.67;94.52;99635.47;6283773;20;3535651;-60
2022/08/31 03:11:32;;;;;;;;;14.67;14.67;;;;;16.58;94.43;99634.41;6283178;20;2811727;-61
2022/08/31 03:14:01;;;;;;;;;15.67;14.00;;;;;16.52;94.64;99636.81;6312662;20;3530583;-61
2022/08/31 03:16:30;;;;;;;;;14.33;14.33;;;;;16.18;96.10;99642.44;6309362;20;3532727;-60
2022/08/31 03:18:59;;;;;;;;;16.00;15.67;;;;;16.02;96.97;99637.47;6280548;20;2824365;-61
2022/08/31 03:21:27;;;;;;;;;14.67;11.67;;;;;16.21;96.93;99642.16;6317335;20;2800374;-60
2022/08/31 03:23:57;;;;;;;;;14.00;13.00;;;;;16.45;95.00;99640.03;6314220;20;3521239;-61
2022/08/31 03:26:25;;;;;;;;;13.00;13.00;;;;;16.38;95.17;99638.88;6281444;20;2798194;-61
2022/08/31 03:28:54;;;;;;;;;15.00;14.00;;;;;16.46;94.52;99649.06;6287384;20;2808583;-61
2022/08/31 03:31:24;;;;;;;;;11.00;11.00;;;;;16.64;92.58;99654.69;6274313;20;2802351;-61
2022/08/31 03:33:53;;;;;;;;;15.33;14.00;;;;;16.62;91.96;99656.72;6281966;20;2804451;-60
2022/08/31 03:36:22;;;;;;;;;15.67;15.67;;;;;16.41;93.08;99651.31;6306119;20;3556585;-61
2022/08/31 03:38:51;;;;;;;;;15.67;13.67;;;;;16.26;94.39;99653.47;6274395;20;3533810;-61
2022/08/31 03:41:23;;;;;;;;;12.00;12.00;;;;;16.13;95.11;99658.22;6278188;20;3538814;-60
2022/08/31 03:43:52;;;;;;;;;15.33;14.00;;;;;16.41;93.93;99657.56;6280740;20;3541919;-60
2022/08/31 03:46:20;;;;;;;;;14.50;14.50;;;;;16.64;92.41;99655.59;6279059;20;2500864;-60
2022/08/31 03:48:49;;;;;;;;;13.67;13.67;;;;;16.56;92.04;99662.66;6280510;20;3526427;-60
2022/08/31 03:51:18;;;;;;;;;15.00;12.00;;;;;16.43;93.05;99662.88;6311549;20;2491962;-61
2022/08/31 03:53:47;;;;;;;;;16.00;15.00;;;;;16.37;92.35;99664.25;6285681;20;2816920;-60
2022/08/31 03:56:15;;;;;;;;;17.33;15.33;;;;;15.72;95.47;99663.44;6279991;20;3556609;-60
2022/08/31 03:58:44;;;;;;;;;14.00;14.00;;;;;15.77;96.24;99672.03;6278860;20;3532581;-61
2022/08/31 04:01:13;;;;;;;;;17.00;14.00;;;;;16.28;94.07;99670.47;6275965;20;2483586;-61
2022/08/31 04:03:42;;;;;;;;;17.33;14.67;;;;;16.14;93.90;99670.75;6283049;20;3544234;-60
2022/08/31 04:06:12;;;;;;;;;16.00;14.00;;;;;16.06;94.86;99673.25;6279521;20;3546101;-61
2022/08/31 04:08:41;;;;;;;;;18.67;13.00;;;;;16.29;94.25;99672.16;6280665;20;3536733;-60
2022/08/31 04:11:17;;;;;;;;;15.00;15.00;;;;;15.93;94.79;99677.03;6311029;20;3545622;-61
2022/08/31 04:13:53;;;;;;;;;16.00;16.00;;;;;16.00;94.95;99672.78;6282998;20;2830509;-48
2022/08/31 04:16:23;;;;;;;;;19.00;15.50;;;;;15.83;95.85;99681.50;6281591;20;2831537;-54
2022/08/31 04:18:53;;;;;;;;;16.33;13.67;;;;;16.11;95.49;99668.31;6281089;20;3548289;-50
2022/08/31 04:21:26;;;;;;;;;18.00;17.00;;;;;16.01;94.62;99679.09;6283053;20;2500461;-49
2022/08/31 04:23:55;;;;;;;;;15.00;14.00;;;;;15.82;95.92;99684.31;6314589;20;3536687;-52
2022/08/31 04:26:36;;;;;;;;;16.67;13.67;;;;;15.95;95.73;99675.03;6283741;20;3539808;-49
2022/08/31 04:29:06;;;;;;;;;16.67;16.00;;;;;15.95;95.68;99680.44;6283718;20;3562911;-52
2022/08/31 04:31:41;;;;;;;;;17.00;17.00;;;;;15.95;96.42;99677.72;6282786;20;2826505;-51
2022/08/31 04:34:09;;;;;;;;;16.00;14.50;;;;;16.06;96.01;99675.97;6281660;20;2814890;-52
2022/08/31 04:36:44;;;;;;;;;18.00;16.50;;;;;16.20;94.56;99679.25;6271894;20;2828638;-52
2022/08/31 04:39:14;;;;;;;;;15.00;15.00;;;;;16.31;94.08;99686.44;6283931;20;2813808;-52
2022/08/31 04:41:44;;;;;;;;;17.00;16.00;;;;;16.22;93.92;99677.28;6280314;20;2828425;-53
2022/08/31 04:44:13;;;;;;;;;16.00;14.67;;;;;16.35;93.83;99690.63;6281979;20;3542946;-50
2022/08/31 04:46:47;;;;;;;;;14.00;14.00;;;;;16.43;93.13;99682.69;6278916;20;3539932;-51
2022/08/31 04:49:15;;;;;;;;;16.00;16.00;;;;;16.67;92.36;99685.13;6278222;20;2483625;-52
2022/08/31 04:51:44;;;;;;;;;15.00;13.33;;;;;16.71;91.26;99682.16;6276331;20;3537750;-59
2022/08/31 04:54:13;;;;;;;;;15.50;14.50;;;;;16.83;90.52;99690.09;6282658;20;2483610;-59
2022/08/31 04:56:44;;;;;;;;;12.67;12.67;;;;;17.11;89.13;99691.25;6283983;20;3531504;-59
2022/08/31 04:59:17;;;;;;;;;18.33;15.00;;;;;17.28;89.34;99692.44;6282794;20;3548275;-60
2022/08/31 05:01:45;;;;;;;;;19.00;16.00;;;;;18.19;85.22;99704.09;6281227;20;2483570;-59
2022/08/31 05:04:15;;;;;;;;;17.33;14.67;;;;;17.80;85.16;99699.59;6287999;20;2811794;-58
2022/08/31 05:06:46;;;;;;;;;14.67;14.67;;;;;17.45;86.76;99703.66;6314700;20;3531496;-59
2022/08/31 05:09:21;;;;;;;;;19.00;15.00;;;;;17.18;88.82;99698.84;6313328;20;2481615;-57
2022/08/31 05:11:55;;;;;;;;;14.00;14.00;;;;;17.08;89.68;99701.50;6283142;20;2483628;-59
2022/08/31 05:14:34;;;;;;;;;15.00;14.00;;;;;17.63;87.41;99703.84;6283146;20;3529436;-61
2022/08/31 05:17:06;;;;;;;;;17.50;15.00;;;;;17.84;85.97;99703.78;6280947;20;2807061;-61
2022/08/31 05:19:43;;;;;;;;;13.00;13.00;;;;;17.94;85.07;99702.78;6283720;20;3400313;-61
2022/08/31 05:22:12;;;;;;;;;14.67;14.67;;;;;18.24;83.33;99709.09;6315465;20;3529453;-61
2022/08/31 05:24:41;;;;;;;;;12.67;12.00;;;;;18.42;82.52;99706.50;6285266;20;3517152;-61
2022/08/31 05:27:09;;;;;;;;;13.00;13.00;;;;;18.11;83.53;99712.09;6312875;20;2689857;-61
2022/08/31 05:29:37;;;;;;;;;15.00;14.00;;;;;19.80;77.29;99717.72;6314743;20;2487770;-61
2022/08/31 05:32:06;;;;;;;;;13.00;11.33;;;;;19.58;76.47;99713.50;6282797;20;3511870;-61
2022/08/31 05:34:35;;;;;;;;;16.67;15.67;;;;;19.04;79.79;99710.59;6284668;20;3549280;-60
2022/08/31 05:37:03;;;;;;;;;13.00;12.00;;;;;19.10;78.88;99708.28;6281975;20;3537748;-60
2022/08/31 05:39:32;;;;;;;;;12.67;11.67;;;;;19.01;80.12;99710.00;6286691;20;3531514;-61
2022/08/31 05:42:00;;;;;;;;;12.00;12.00;;;;;19.16;80.52;99710.38;6314728;20;2483606;-60
2022/08/31 05:44:28;;;;;;;;;11.50;9.50;;;;;19.08;80.57;99703.81;6290968;20;2783645;-61
2022/08/31 05:46:57;;;;;;;;;13.00;13.00;;;;;19.25;78.97;99706.78;6283233;20;3526369;-60
2022/08/31 05:49:32;;;;;;;;;12.00;12.00;;;;;19.45;78.67;99708.38;6283793;20;3528616;-56
2022/08/31 05:52:04;;;;;;;;;15.67;13.67;;;;;19.79;77.72;99702.34;6294709;20;3538821;-58
2022/08/31 05:54:35;;;;;;;;;12.33;11.33;;;;;19.82;78.12;99710.22;6286781;20;2810677;-56
2022/08/31 05:57:05;;;;;;;;;13.33;13.00;;;;;20.20;77.71;99713.69;6309641;20;3514878;-56
2022/08/31 05:59:37;;;;;;;;;12.67;12.67;;;;;21.17;73.59;99723.69;6284197;20;2483626;-55
2022/08/31 06:02:12;;;;;;;;;11.33;11.33;;;;;21.60;70.78;99726.50;6309816;20;3540897;-58
2022/08/31 06:04:40;;;;;;;;;13.67;12.00;;;;;23.53;65.22;99723.31;6318563;20;2803391;-56
2022/08/31 06:07:09;;;;;;;;;12.00;12.00;;;;;24.38;60.96;99723.41;6312668;20;3514912;-58
2022/08/31 06:09:38;;;;;;;;;11.00;9.67;;;;;23.38;63.34;99726.81;6321862;20;2787090;-57
2022/08/31 06:12:09;;;;;;;;;11.67;11.67;;;;;22.46;66.76;99726.22;6312337;20;3513788;-58
2022/08/31 06:14:40;;;;;;;;;13.00;10.00;;;;;22.38;68.35;99730.81;6313690;20;3510629;-58
2022/08/31 06:17:16;;;;;;;;;12.00;10.67;;;;;22.55;66.35;99729.81;6318837;20;2789927;-58
2022/08/31 06:19:45;;;;;;;;;11.33;11.33;;;;;22.42;67.62;99726.72;6313390;20;3510639;-57
2022/08/31 06:22:13;;;;;;;;;10.33;9.33;;;;;22.10;66.01;99720.16;6317122;20;2780455;-58
2022/08/31 06:24:41;;;;;;;;;11.33;11.00;;;;;22.34;67.02;99722.94;6313465;20;3513117;-56
2022/08/31 06:27:10;;;;;;;;;12.00;10.67;;;;;22.92;65.47;99726.53;6309014;20;3511813;-57
2022/08/31 06:29:40;;;;;;;;;11.00;9.00;;;;;22.74;66.32;99726.72;6313877;20;3488759;-58
2022/08/31 06:32:12;;;;;;;;;9.33;8.67;;;;;22.33;64.57;99720.41;6308931;20;3481491;-52
2022/08/31 06:34:42;;;;;;;;;10.00;9.00;;;;;22.69;64.67;99731.84;6314162;20;2773361;-54
2022/08/31 06:37:12;;;;;;;;;8.00;6.00;;;;;23.74;58.39;99726.34;6340648;20;2734686;-54
2022/08/31 06:39:46;;;;;;;;;9.00;9.00;;;;;24.15;58.44;99728.88;6313816;20;3473243;-57
2022/08/31 06:42:15;;;;;;;;;9.33;9.33;;;;;24.19;57.74;99734.84;6317574;20;2775275;-55
2022/08/31 06:44:44;;;;;;;;;10.00;9.00;;;;;25.17;54.62;99734.94;6319396;20;2766043;-54
2022/08/31 06:47:14;;;;;;;;;11.00;11.00;;;;;28.00;48.62;99740.09;6341886;20;2791914;-57
2022/08/31 06:49:43;;;;;;;;;68.50;52.50;;;;;30.42;41.81;99757.22;6290716;20;4391966;-54
2022/08/31 06:52:16;;;;;;;;;35.00;27.00;;;;;31.21;38.75;99759.38;6336649;20;3611782;-57
2022/08/31 06:54:44;;;;;;;;;13.33;12.67;;;;;30.37;38.98;99761.47;6323458;20;3537723;-59
2022/08/31 06:57:13;;;;;;;;;10.00;10.00;;;;;26.82;46.47;99750.94;6318523;20;2483598;-53
2022/08/31 06:59:41;;;;;;;;;11.33;10.00;;;;;25.00;51.51;99744.34;6321536;20;2784861;-55
2022/08/31 07:02:10;;;;;;;;;10.33;10.33;;;;;24.64;52.83;99736.75;6318284;20;3514251;-54
2022/08/31 07:04:39;;;;;;;;;13.33;13.33;;;;;24.42;53.62;99734.84;6322855;20;3531524;-56
2022/08/31 07:07:10;;;;;;;;;11.00;11.00;;;;;25.17;52.86;99743.19;6321525;20;3521144;-54
2022/08/31 07:09:40;;;;;;;;;11.67;9.00;;;;;24.71;53.09;99737.75;6321180;20;2769010;-54
2022/08/31 07:12:08;;;;;;;;;11.00;11.00;;;;;24.02;54.07;99739.59;6318343;20;3507499;-52
2022/08/31 07:14:37;;;;;;;;;9.33;9.33;;;;;24.14;53.68;99740.88;6320271;20;2779527;-52
2022/08/31 07:17:07;;;;;;;;;11.67;11.67;;;;;24.09;54.75;99743.28;6314860;20;2483588;-57
2022/08/31 07:19:35;;;;;;;;;11.00;10.00;;;;;24.73;51.92;99743.91;6317372;20;2784708;-56
2022/08/31 07:22:08;;;;;;;;;9.33;9.33;;;;;25.75;49.72;99756.25;6319119;20;3483657;-55
2022/08/31 07:24:42;;;;;;;;;9.67;9.67;;;;;25.67;50.42;99750.84;6317569;20;3493118;-54
2022/08/31 07:27:17;;;;;;;;;9.00;9.00;;;;;27.81;45.42;99754.69;6314626;20;2762915;-55
2022/08/31 07:29:46;;;;;;;;;10.00;10.00;;;;;25.57;50.24;99752.03;6316388;20;3509745;-55
2022/08/31 07:32:16;;;;;;;;;10.50;10.50;;;;;24.98;51.75;99739.03;6320265;20;2663822;-54
2022/08/31 07:34:44;;;;;;;;;8.67;8.67;;;;;25.61;51.42;99742.31;6317837;20;2760694;-54
2022/08/31 07:42:49;;;;;;;;;6.60;5.00;;;;;24.70;52.56;99733.28;6344280;20;2734646;-55
2022/08/31 07:45:22;;;;;;;;;11.00;10.00;;;;;24.24;53.90;99732.41;6286361;20;2790888;-56
2022/08/31 07:47:58;;;;;;;;;11.67;11.00;;;;;24.23;53.29;99730.72;6313627;20;3511796;-57
2022/08/31 07:50:30;;;;;;;;;10.00;10.00;;;;;24.21;53.84;99739.09;6316950;20;2670073;-53
2022/08/31 07:52:59;;;;;;;;;12.00;10.33;;;;;24.46;53.14;99736.22;6315665;20;3512716;-55
2022/08/31 07:55:28;;;;;;;;;11.33;10.67;;;;;24.44;52.97;99730.94;6284253;20;3507901;-54
2022/08/31 07:57:57;;;;;;;;;10.33;10.33;;;;;24.50;52.71;99735.69;6318885;20;2793993;-52
2022/08/31 08:00:31;;;;;;;;;10.00;9.00;;;;;24.55;52.73;99735.13;6314081;20;3485655;-55
2022/08/31 08:03:06;;;;;;;;;11.33;10.33;;;;;24.28;53.55;99731.03;6318729;20;3520169;-57
2022/08/31 08:05:46;;;;;;;;;8.33;8.33;;;;;24.52;52.94;99732.75;6317417;20;2752329;-57
2022/08/31 08:08:15;;;;;;;;;14.00;13.33;;;;;24.51;52.75;99734.66;6317550;20;3534599;-51
2022/08/31 08:10:46;;;;;;;;;13.00;12.00;;;;;24.42;52.85;99735.72;6313556;20;3529447;-54
2022/08/31 08:13:21;;;;;;;;;10.67;10.67;;;;;24.60;52.85;99735.44;6319514;20;2485678;-55
2022/08/31 08:17:17;;;;;;;;;9.00;9.00;;;;;25.01;52.03;99735.06;6317102;20;2738888;-54
2022/08/31 08:19:46;;;;;;;;;9.00;9.00;;;;;25.02;51.83;99733.19;6315285;20;2771114;-56
2022/08/31 08:22:14;;;;;;;;;9.33;9.33;;;;;25.27;51.32;99739.28;6317199;20;3492943;-55
2022/08/31 08:25:05;;;;;;;;;11.20;11.20;;;;;26.20;49.03;99729.56;6342782;20;2789242;-56
2022/08/31 08:27:35;;;;;;;;;9.67;8.00;;;;;26.66;48.36;99731.94;6282884;20;3479372;-56
2022/08/31 08:30:08;;;;;;;;;9.33;7.67;;;;;27.04;47.09;99727.00;6317586;20;2740892;-57
2022/08/31 08:32:36;;;;;;;;;9.67;8.00;;;;;26.71;48.10;99723.94;6316777;20;2760696;-55
2022/08/31 08:35:08;;;;;;;;;8.00;7.00;;;;;26.90;47.92;99719.66;6317493;20;3458562;-55
2022/08/31 08:37:42;;;;;;;;;7.00;7.00;;;;;27.12;47.21;99717.69;6316116;20;2750284;-54
2022/08/31 08:40:45;;;;;;;;;7.00;7.00;;;;;27.14;46.46;99726.63;6317719;20;2744000;-54
2022/08/31 08:43:19;;;;;;;;;9.33;8.00;;;;;27.35;45.88;99718.28;6319745;20;2758690;-53
2022/08/31 08:45:52;;;;;;;;;7.33;5.33;;;;;27.42;45.53;99723.03;6322550;20;2739861;-57
2022/08/31 08:48:27;;;;;;;;;8.67;8.67;;;;;27.44;45.89;99720.91;6318342;20;2756493;-55
2022/08/31 08:50:56;;;;;;;;;10.00;7.33;;;;;27.92;45.00;99718.19;6314420;20;3482534;-52
2022/08/31 08:53:29;;;;;;;;;9.00;9.00;;;;;27.82;44.91;99728.78;6314297;20;2756665;-57
2022/08/31 08:55:59;;;;;;;;;9.33;8.00;;;;;27.65;45.46;99709.78;6322532;20;2746156;-54
2022/08/31 08:58:48;;;;;;;;;7.00;7.00;;;;;27.73;44.21;99720.63;6317664;20;2748168;-55
2022/08/31 09:01:26;;;;;;;;;9.00;8.67;;;;;27.66;44.00;99711.47;6315083;20;2758574;-57
2022/08/31 09:04:23;;;;;;;;;6.67;5.33;;;;;27.93;43.12;99709.69;6316539;20;2741915;-55
2022/08/31 09:07:29;;;;;;;;;8.00;8.00;;;;;28.38;43.41;99707.25;6321440;20;2754476;-54
2022/08/31 09:10:45;;;;;;;;;7.67;7.67;;;;;28.23;42.17;99704.72;6318071;20;2741928;-53
2022/08/31 09:13:36;;;;;;;;;7.33;7.33;;;;;28.55;41.34;99707.75;6315945;20;2736770;-54
2022/08/31 09:16:46;;;;;;;;;8.00;8.00;;;;;28.51;41.10;99689.91;6319189;20;2756515;-56
2022/08/31 09:19:18;;;;;;;;;8.67;8.67;;;;;28.63;40.68;99699.25;6320176;20;2766996;-54
2022/08/31 09:21:55;;;;;;;;;7.00;7.00;;;;;28.83;41.60;99693.75;6322137;20;2739924;-54
2022/08/31 09:24:31;;;;;;;;;7.00;6.00;;;;;28.82;40.47;99693.94;6325355;20;2732573;-58
2022/08/31 09:27:17;;;;;;;;;9.00;8.00;;;;;28.98;39.76;99685.22;6316131;20;2744010;-55
2022/08/31 09:30:00;;;;;;;;;8.00;8.00;;;;;29.04;40.16;99683.50;6319348;20;2744031;-56
2022/08/31 09:32:34;;;;;;;;;10.00;9.00;;;;;29.06;39.84;99690.56;6313384;20;2765899;-57
2022/08/31 09:35:39;;;;;;;;;7.00;6.60;;;;;28.72;39.57;99690.75;6340024;20;2746136;-54
2022/08/31 09:38:24;;;;;;;;;6.00;6.00;;;;;28.45;40.98;99685.22;6292082;20;2741901;-57
2022/08/31 09:40:52;;;;;;;;;7.00;7.00;;;;;28.59;40.51;99686.06;6313105;20;2738837;-53
2022/08/31 09:43:36;;;;;;;;;5.00;4.00;;;;;28.69;40.35;99682.91;6319921;20;2737797;-58
2022/08/31 09:46:27;;;;;;;;;7.33;6.67;;;;;28.54;39.94;99677.56;6318227;20;2748896;-56
2022/08/31 09:49:01;;;;;;;;;8.33;7.33;;;;;29.56;38.29;99680.88;6316544;20;2738798;-56
2022/08/31 09:51:38;;;;;;;;;7.00;5.50;;;;;29.75;38.19;99669.75;6321589;20;2614892;-57
2022/08/31 09:58:01;;;;;;;;;7.33;7.33;;;;;28.90;40.02;99666.09;6307339;20;2746174;-57
2022/08/31 10:00:46;;;;;;;;;9.33;8.33;;;;;29.46;37.44;99664.72;6313429;20;2755480;-54
2022/08/31 10:03:27;;;;;;;;;8.33;6.33;;;;;29.77;36.96;99666.75;6313758;20;2736736;-53
2022/08/31 10:05:56;;;;;;;;;9.00;6.67;;;;;30.36;36.71;99668.38;6320784;20;2756637;-54
2022/08/31 10:08:38;;;;;;;;;9.00;8.00;;;;;28.74;38.21;99656.31;6316179;20;2733644;-58
2022/08/31 10:11:31;;;;;;;;;9.00;9.00;;;;;28.65;38.57;99652.09;6321910;20;2758614;-57
2022/08/31 10:14:29;;;;;;;;;12.33;8.33;;;;;29.06;38.20;99646.31;6311386;20;2761760;-55
2022/08/31 10:17:10;;;;;;;;;8.00;8.00;;;;;29.45;37.90;99647.28;6323609;20;2751292;-56
2022/08/31 10:20:14;;;;;;;;;8.33;7.67;;;;;28.77;38.87;99644.00;6317657;20;2754447;-54
2022/08/31 10:22:55;;;;;;;;;7.33;4.00;;;;;28.49;38.65;99642.31;6322537;20;2732594;-57
2022/08/31 10:25:46;;;;;;;;;6.33;6.33;;;;;29.56;37.53;99644.88;6320528;20;2744034;-50
2022/08/31 10:28:53;;;;;;;;;7.00;7.00;;;;;30.66;35.60;99645.53;6316589;20;2746248;-47
2022/08/31 10:31:32;;;;;;;;;6.67;6.33;;;;;30.34;36.25;99648.34;6321435;20;2731515;-50
2022/08/31 10:37:19;;;;;;;;;6.00;6.00;;;;;29.03;37.52;99632.91;6307623;20;2738850;-50
2022/08/31 10:39:57;;;;;;;;;7.33;7.33;;;;;29.74;37.57;99629.28;6316951;20;2746117;-49
2022/08/31 10:42:34;;;;;;;;;12.00;8.67;;;;;29.75;36.37;99625.47;6316085;20;2775298;-48
2022/08/31 10:45:21;;;;;;;;;7.00;6.00;;;;;30.53;36.35;99626.25;6319319;20;2729561;-46
2022/08/31 10:47:55;;;;;;;;;6.67;6.00;;;;;30.23;35.46;99626.00;6328080;20;2737743;-47
2022/08/31 10:50:38;;;;;;;;;7.33;7.00;;;;;29.92;36.18;99624.94;6320887;20;2735751;-47
2022/08/31 10:54:02;;;;;;;;;8.00;8.00;;;;;28.90;38.09;99610.81;6315414;20;2749199;-47
2022/08/31 10:56:58;;;;;;;;;7.33;7.33;;;;;29.82;36.72;99610.72;6324606;20;2750369;-52
2022/08/31 10:59:56;;;;;;;;;5.33;5.33;;;;;29.72;36.23;99603.75;6319452;20;2735684;-52
2022/08/31 11:03:03;;;;;;;;;7.67;6.33;;;;;29.37;36.66;99603.25;6326680;20;2750268;-52
2022/08/31 11:06:04;;;;;;;;;7.00;7.00;;;;;30.31;35.93;99604.47;6318374;20;2746085;-50
2022/08/31 11:09:26;;;;;;;;;4.67;4.67;;;;;29.61;35.48;99611.88;6317844;20;2750244;-46
2022/08/31 11:12:14;;;;;;;;;5.67;5.67;;;;;30.36;35.04;99609.31;6318879;20;2735721;-49
2022/08/31 11:15:25;;;;;;;;;6.00;6.00;;;;;30.19;35.35;99598.75;6318518;20;2751322;-45
2022/08/31 11:18:34;;;;;;;;;6.33;6.00;;;;;29.94;35.52;99601.50;6315897;20;2740922;-45
2022/08/31 11:21:45;;;;;;;;;7.33;6.33;;;;;29.77;35.98;99594.78;6321642;20;2744047;-48
2022/08/31 11:24:35;;;;;;;;;5.00;5.00;;;;;29.29;36.88;99593.28;6321211;20;2734694;-46
2022/08/31 11:27:24;;;;;;;;;6.33;5.33;;;;;29.02;37.42;99591.66;6317803;20;2743001;-53
2022/08/31 11:30:08;;;;;;;;;9.00;8.00;;;;;28.79;38.34;99589.38;6317637;20;2743992;-53
2022/08/31 11:33:10;;;;;;;;;9.00;8.00;;;;;28.72;38.32;99585.75;6329832;20;2708616;-52
2022/08/31 11:36:01;;;;;;;;;9.00;7.00;;;;;29.75;37.09;99586.72;6326623;20;2748373;-50
2022/08/31 11:38:56;;;;;;;;;10.33;8.67;;;;;29.37;37.57;99583.91;6313304;20;2776315;-50
2022/08/31 11:41:37;;;;;;;;;8.00;8.00;;;;;28.95;37.76;99580.59;6329213;20;2754445;-49
2022/08/31 11:44:09;;;;;;;;;4.33;4.33;;;;;28.98;38.01;99574.63;6320195;20;2737764;-50
2022/08/31 11:46:44;;;;;;;;;5.00;4.00;;;;;29.53;37.05;99577.00;6318854;20;2750249;-48
2022/08/31 11:49:58;;;;;;;;;6.00;6.00;;;;;29.77;37.22;99578.19;6323260;20;2739860;-47
2022/08/31 11:52:47;;;;;;;;;6.00;6.00;;;;;29.21;37.51;99570.56;6318872;20;2739829;-45
2022/08/31 11:55:28;;;;;;;;;7.00;7.00;;;;;29.06;38.67;99573.59;6327184;20;2737914;-50
2022/08/31 11:58:06;;;;;;;;;8.33;8.33;;;;;30.48;36.18;99584.50;6314978;20;2745088;-46
2022/08/31 12:00:44;;;;;;;;;8.00;8.00;;;;;30.45;36.40;99583.03;6317840;20;2752356;-50
2022/08/31 12:03:44;;;;;;;;;6.00;6.00;;;;;30.05;36.09;99576.94;6320360;20;2731610;-47